Time;durP1;ratioP1;P1;durP2;ratioP2;P2;SDS_P1;SDS_P2;PMS_P1;PMS_P2;Temp;Humidity;BMP_temperature;BMP_pressure;BME280_temperature;BME280_humidity;BME280_pressure;Samples;Min_cycle;Max_cycle;Signal;HPM_P1;HPM_P2
2023/10/26 00:00:30;;;;;;;32.53;23.75;;;10.20;99.90;;;;;;5000374;28;20046;-70
2023/10/26 00:02:56;;;;;;;34.20;23.80;;;10.10;99.90;;;;;;5016648;28;20038;-70
2023/10/26 00:05:22;;;;;;;33.15;24.60;;;10.10;99.90;;;;;;5016693;28;20044;-70
2023/10/26 00:07:48;;;;;;;32.58;25.13;;;10.10;99.90;;;;;;5000154;28;20040;-70
2023/10/26 00:10:13;;;;;;;33.08;25.10;;;10.20;99.90;;;;;;4980515;28;20073;-70
2023/10/26 00:12:39;;;;;;;34.22;26.33;;;10.20;99.90;;;;;;5013396;28;20045;-69
2023/10/26 00:15:06;;;;;;;32.40;25.70;;;10.20;99.90;;;;;;5013363;28;20038;-70
2023/10/26 00:17:31;;;;;;;35.80;26.95;;;10.20;99.90;;;;;;5013321;28;20394;-70
2023/10/26 00:19:57;;;;;;;35.08;27.67;;;10.20;99.90;;;;;;4996736;28;20050;-70
2023/10/26 00:22:23;;;;;;;37.75;28.25;;;10.20;99.90;;;;;;5013230;28;20042;-70
2023/10/26 00:24:50;;;;;;;36.40;28.02;;;10.20;99.90;;;;;;5012983;28;20052;-70
2023/10/26 00:27:16;;;;;;;36.33;28.98;;;10.20;99.90;;;;;;5013084;28;20376;-70
2023/10/26 00:29:42;;;;;;;41.35;29.95;;;10.20;99.90;;;;;;5012793;28;20445;-70
2023/10/26 00:32:08;;;;;;;41.13;31.15;;;10.10;99.90;;;;;;4996583;28;20125;-70
2023/10/26 00:34:35;;;;;;;41.47;30.45;;;10.20;99.90;;;;;;5012764;28;20041;-70
2023/10/26 00:37:01;;;;;;;42.53;31.25;;;10.10;99.90;;;;;;5013022;28;20549;-70
2023/10/26 00:39:27;;;;;;;46.88;32.03;;;10.10;99.90;;;;;;5013052;28;20124;-70
2023/10/26 00:41:53;;;;;;;42.78;32.70;;;10.10;99.90;;;;;;4996317;28;20050;-70
2023/10/26 00:44:21;;;;;;;45.08;33.35;;;10.10;99.90;;;;;;4996249;28;20046;-70
2023/10/26 00:46:52;;;;;;;45.03;33.78;;;10.10;99.90;;;;;;4996485;28;20176;-71
2023/10/26 00:49:19;;;;;;;50.13;35.50;;;10.10;99.90;;;;;;5012462;28;20096;-71
2023/10/26 00:51:49;;;;;;;47.13;36.40;;;10.10;99.90;;;;;;5012647;28;20281;-71
2023/10/26 00:54:16;;;;;;;52.25;37.30;;;10.10;99.90;;;;;;4996141;28;20120;-71
2023/10/26 00:56:43;;;;;;;53.83;38.42;;;10.10;99.90;;;;;;5012676;28;20045;-72
2023/10/26 00:59:09;;;;;;;52.75;38.88;;;10.20;99.90;;;;;;5012331;28;20046;-71
2023/10/26 01:01:36;;;;;;;54.40;39.42;;;10.10;99.90;;;;;;4995956;28;20095;-72
2023/10/26 01:04:03;;;;;;;52.20;39.60;;;10.10;99.90;;;;;;4995986;28;20042;-71
2023/10/26 01:06:29;;;;;;;50.58;39.03;;;10.10;99.90;;;;;;5012265;28;20049;-71
2023/10/26 01:08:54;;;;;;;55.60;40.90;;;10.10;99.90;;;;;;5012340;28;20116;-71
2023/10/26 01:11:21;;;;;;;54.80;40.78;;;10.10;99.90;;;;;;5012082;28;20054;-71
2023/10/26 01:13:49;;;;;;;56.03;41.50;;;10.10;99.90;;;;;;5012147;28;20099;-71
2023/10/26 01:16:15;;;;;;;57.08;42.10;;;10.10;99.90;;;;;;5011721;28;20045;-71
2023/10/26 01:18:40;;;;;;;56.55;42.22;;;10.10;99.90;;;;;;4995770;28;20131;-71
2023/10/26 01:21:06;;;;;;;58.85;41.95;;;10.10;99.90;;;;;;5012044;28;20046;-71
2023/10/26 01:23:32;;;;;;;56.55;42.53;;;10.10;99.90;;;;;;5012294;28;20398;-71
2023/10/26 01:25:58;;;;;;;54.67;42.05;;;10.10;99.90;;;;;;5012012;28;20107;-71
2023/10/26 01:28:25;;;;;;;54.22;41.28;;;10.10;99.90;;;;;;5011950;28;20081;-71
2023/10/26 01:30:54;;;;;;;52.90;40.42;;;10.10;99.90;;;;;;5012042;28;20048;-71
2023/10/26 01:33:20;;;;;;;53.90;41.03;;;10.10;99.90;;;;;;5012384;28;20112;-71
2023/10/26 01:35:47;;;;;;;59.58;42.78;;;10.10;99.90;;;;;;5012228;28;20490;-70
2023/10/26 01:38:13;;;;;;;51.95;41.17;;;10.10;99.90;;;;;;5012029;28;20048;-71
2023/10/26 01:40:39;;;;;;;54.90;42.55;;;10.10;99.90;;;;;;5012435;28;20462;-71
2023/10/26 01:43:05;;;;;;;58.70;44.58;;;10.10;99.90;;;;;;5012226;28;20487;-71
2023/10/26 01:45:31;;;;;;;61.80;46.03;;;10.20;99.90;;;;;;5012047;28;20038;-71
2023/10/26 01:48:02;;;;;;;64.40;48.15;;;10.20;99.90;;;;;;4995910;28;20520;-71
2023/10/26 01:50:30;;;;;;;69.28;49.33;;;10.20;99.90;;;;;;5012069;28;20311;-71
2023/10/26 01:52:56;;;;;;;69.68;48.35;;;10.10;99.90;;;;;;4995687;28;20449;-71
2023/10/26 01:55:21;;;;;;;73.00;50.65;;;10.10;99.90;;;;;;5011845;28;20053;-71
2023/10/26 01:57:47;;;;;;;67.45;50.45;;;10.10;99.90;;;;;;4995819;28;20096;-70
2023/10/26 02:00:13;;;;;;;68.82;49.53;;;10.10;99.90;;;;;;5011739;28;20125;-70
2023/10/26 02:02:39;;;;;;;73.28;50.63;;;10.10;99.90;;;;;;5011703;28;20050;-70
2023/10/26 02:05:05;;;;;;;75.65;52.80;;;10.10;99.90;;;;;;4995366;28;20100;-70
2023/10/26 02:07:30;;;;;;;75.28;52.40;;;10.10;99.90;;;;;;5011807;28;20069;-70
2023/10/26 02:09:56;;;;;;;76.50;52.05;;;10.10;99.90;;;;;;4995092;28;20542;-70
2023/10/26 02:12:22;;;;;;;78.18;52.28;;;10.10;99.90;;;;;;5011992;28;20116;-70
2023/10/26 02:14:48;;;;;;;76.10;52.17;;;10.10;99.90;;;;;;5012843;28;20041;-70
2023/10/26 02:17:14;;;;;;;74.30;51.25;;;10.10;99.90;;;;;;5011474;28;20046;-70
2023/10/26 02:19:39;;;;;;;82.07;54.03;;;10.10;99.90;;;;;;4995607;28;20045;-70
2023/10/26 02:22:05;;;;;;;77.35;52.60;;;10.10;99.90;;;;;;5011438;28;20042;-70
2023/10/26 02:24:31;;;;;;;71.07;50.53;;;10.10;99.90;;;;;;5011452;28;20411;-70
2023/10/26 02:26:56;;;;;;;76.88;51.35;;;10.10;99.90;;;;;;5011512;28;20121;-70
2023/10/26 02:29:22;;;;;;;74.38;51.53;;;10.10;99.90;;;;;;4998493;28;20038;-70
2023/10/26 02:31:48;;;;;;;82.93;53.60;;;10.10;99.90;;;;;;4998735;28;20117;-70
2023/10/26 02:34:13;;;;;;;73.55;51.60;;;10.10;99.90;;;;;;5014946;28;20049;-70
2023/10/26 02:36:39;;;;;;;78.68;51.45;;;10.10;99.90;;;;;;5015344;28;20081;-70
2023/10/26 02:39:05;;;;;;;77.85;52.92;;;10.00;99.90;;;;;;5014805;28;20045;-70
2023/10/26 02:41:30;;;;;;;73.43;51.33;;;10.00;99.90;;;;;;5014838;28;20042;-70
2023/10/26 02:43:56;;;;;;;72.90;50.53;;;10.00;99.90;;;;;;5015205;28;20045;-70
2023/10/26 02:46:23;;;;;;;78.82;51.28;;;10.00;99.90;;;;;;5014797;28;20053;-70
2023/10/26 02:48:49;;;;;;;75.30;51.50;;;10.00;99.90;;;;;;4998780;28;20045;-70
2023/10/26 02:51:15;;;;;;;73.75;51.47;;;10.00;99.90;;;;;;5014677;28;20049;-70
2023/10/26 02:53:42;;;;;;;79.25;51.95;;;10.00;99.90;;;;;;5014515;28;20034;-70
2023/10/26 02:56:08;;;;;;;79.20;52.65;;;10.00;99.90;;;;;;5014968;28;20038;-70
2023/10/26 02:58:34;;;;;;;86.63;54.40;;;10.00;99.90;;;;;;4998355;28;20042;-71
2023/10/26 03:01:00;;;;;;;78.47;51.88;;;10.00;99.90;;;;;;5014444;28;20045;-70
2023/10/26 03:03:26;;;;;;;78.03;53.05;;;10.00;99.90;;;;;;5014763;28;20133;-70
2023/10/26 03:05:52;;;;;;;80.15;52.72;;;10.00;99.90;;;;;;5014654;28;20091;-70
2023/10/26 03:08:18;;;;;;;83.47;53.65;;;10.00;99.90;;;;;;4998137;28;20129;-70
2023/10/26 03:10:44;;;;;;;79.20;53.47;;;10.00;99.90;;;;;;5008043;28;20136;-70
2023/10/26 03:13:10;;;;;;;80.85;53.50;;;10.00;99.90;;;;;;5014305;28;20046;-70
2023/10/26 03:15:36;;;;;;;80.97;52.50;;;10.00;99.90;;;;;;5014356;28;20033;-70
2023/10/26 03:18:02;;;;;;;78.95;52.92;;;10.00;99.90;;;;;;5014154;28;20534;-70
2023/10/26 03:20:28;;;;;;;78.95;52.38;;;10.00;99.90;;;;;;5014357;28;20034;-70
2023/10/26 03:22:54;;;;;;;80.03;51.13;;;10.00;99.90;;;;;;5014564;28;20042;-70
2023/10/26 03:25:19;;;;;;;78.65;51.67;;;10.00;99.90;;;;;;5014290;28;20042;-70
2023/10/26 03:27:45;;;;;;;75.20;49.55;;;10.00;99.90;;;;;;4997620;28;20046;-70
2023/10/26 03:30:11;;;;;;;75.40;51.97;;;10.00;99.90;;;;;;5013817;28;20044;-70
2023/10/26 03:32:37;;;;;;;75.47;51.90;;;9.90;99.90;;;;;;5014002;28;20138;-71
2023/10/26 03:35:03;;;;;;;77.88;51.20;;;9.90;99.90;;;;;;5013782;28;20034;-70
2023/10/26 03:37:30;;;;;;;67.93;49.00;;;9.90;99.90;;;;;;5013878;28;20042;-70
2023/10/26 03:39:55;;;;;;;75.13;50.63;;;9.90;99.90;;;;;;5013402;28;20046;-71
2023/10/26 03:42:21;;;;;;;77.65;50.90;;;9.90;99.90;;;;;;5013794;28;20046;-70
2023/10/26 03:44:47;;;;;;;76.50;49.90;;;9.90;99.90;;;;;;5013637;28;20494;-70
2023/10/26 03:47:13;;;;;;;76.80;50.78;;;9.90;99.90;;;;;;5014018;28;20084;-71
2023/10/26 03:49:39;;;;;;;75.97;50.22;;;9.90;99.90;;;;;;5013605;28;20045;-70
2023/10/26 03:52:05;;;;;;;73.75;49.70;;;9.90;99.90;;;;;;5013666;28;20038;-70
2023/10/26 03:54:30;;;;;;;72.97;49.58;;;9.90;99.90;;;;;;5013736;28;20042;-70
2023/10/26 03:56:56;;;;;;;79.45;51.60;;;9.90;99.90;;;;;;5013419;28;20038;-70
2023/10/26 03:59:22;;;;;;;70.10;47.88;;;9.90;99.90;;;;;;5013703;28;20128;-70
2023/10/26 04:01:47;;;;;;;73.55;50.25;;;9.90;99.90;;;;;;5013316;28;20038;-70
2023/10/26 04:04:13;;;;;;;73.05;49.13;;;9.90;99.90;;;;;;5013584;28;20085;-70
2023/10/26 04:06:39;;;;;;;80.50;51.40;;;9.90;99.90;;;;;;5013203;28;20057;-70
2023/10/26 04:09:04;;;;;;;75.25;49.55;;;9.90;99.90;;;;;;5013133;28;20077;-70
2023/10/26 04:11:30;;;;;;;74.72;49.65;;;9.90;99.90;;;;;;5013012;28;20133;-70
2023/10/26 04:13:57;;;;;;;79.50;49.45;;;9.80;99.90;;;;;;4996853;28;20049;-70
2023/10/26 04:16:24;;;;;;;76.80;51.35;;;9.90;99.90;;;;;;5013073;28;20038;-70
2023/10/26 04:18:51;;;;;;;76.60;50.60;;;9.90;99.90;;;;;;5013337;28;20049;-70
2023/10/26 04:21:17;;;;;;;77.00;50.38;;;9.90;99.90;;;;;;5013025;28;20041;-71
2023/10/26 04:23:42;;;;;;;81.63;51.80;;;9.90;99.90;;;;;;5012914;28;20125;-71
2023/10/26 04:26:12;;;;;;;80.10;51.50;;;9.90;99.90;;;;;;5013015;28;20057;-71
2023/10/26 04:28:39;;;;;;;78.10;49.53;;;9.90;99.90;;;;;;4997328;28;20053;-71
2023/10/26 04:31:05;;;;;;;79.55;51.83;;;9.90;99.90;;;;;;5013064;28;20046;-71
2023/10/26 04:33:30;;;;;;;81.32;51.13;;;9.90;99.90;;;;;;4996558;28;20103;-71
2023/10/26 04:36:02;;;;;;;77.90;51.03;;;9.90;99.90;;;;;;5013043;28;20083;-71
2023/10/26 04:38:28;;;;;;;;;;;9.90;99.90;;;;;;5013388;28;20514;-71
2023/10/26 04:40:54;;;;;;;79.60;49.42;;;9.90;99.90;;;;;;5012645;28;20007;-71
2023/10/26 04:43:20;;;;;;;77.35;50.15;;;9.90;99.90;;;;;;5012683;28;20489;-71
2023/10/26 04:45:46;;;;;;;81.43;51.88;;;9.90;99.90;;;;;;5012636;28;20052;-71
2023/10/26 04:48:12;;;;;;;78.30;50.30;;;9.90;99.90;;;;;;5012633;28;20042;-71
2023/10/26 04:50:38;;;;;;;79.18;50.20;;;9.90;99.90;;;;;;5011839;28;20042;-71
2023/10/26 04:53:04;;;;;;;80.47;52.20;;;9.90;99.90;;;;;;5012778;28;20124;-71
2023/10/26 04:55:33;;;;;;;80.78;51.05;;;9.90;99.90;;;;;;5012746;28;20034;-71
2023/10/26 04:57:59;;;;;;;80.40;50.42;;;9.90;99.90;;;;;;5012551;28;20049;-71
2023/10/26 05:00:26;;;;;;;79.38;50.17;;;9.90;99.90;;;;;;5012414;28;20049;-71
2023/10/26 05:02:52;;;;;;;82.10;50.63;;;9.90;99.90;;;;;;5012566;28;20048;-71
2023/10/26 05:05:18;;;;;;;75.50;50.53;;;9.90;99.90;;;;;;5012303;28;20100;-71
2023/10/26 05:07:45;;;;;;;77.72;50.38;;;9.80;99.90;;;;;;5012546;28;20108;-71
2023/10/26 05:10:11;;;;;;;79.57;50.38;;;9.80;99.90;;;;;;5012046;28;20093;-71
2023/10/26 05:12:38;;;;;;;77.95;50.58;;;9.80;99.90;;;;;;4996190;28;20120;-71
2023/10/26 05:15:04;;;;;;;76.82;50.58;;;9.90;99.90;;;;;;4995802;28;20045;-71
2023/10/26 05:17:30;;;;;;;78.07;50.35;;;9.80;99.90;;;;;;5012223;28;20038;-71
2023/10/26 05:19:56;;;;;;;79.47;51.10;;;9.80;99.90;;;;;;5012554;28;20458;-71
2023/10/26 05:22:22;;;;;;;76.35;50.42;;;9.80;99.90;;;;;;5012194;28;20059;-71
2023/10/26 05:24:48;;;;;;;71.82;47.90;;;9.80;99.90;;;;;;5012124;28;20049;-71
2023/10/26 05:27:14;;;;;;;78.72;50.85;;;9.80;99.90;;;;;;5012197;28;20417;-70
2023/10/26 05:29:39;;;;;;;76.35;50.03;;;9.80;99.90;;;;;;5012057;28;20065;-71
2023/10/26 05:32:05;;;;;;;78.43;49.63;;;9.80;99.90;;;;;;4995921;28;20069;-71
2023/10/26 05:34:31;;;;;;;75.32;50.22;;;9.70;99.90;;;;;;5012051;28;20099;-70
2023/10/26 05:36:57;;;;;;;82.03;50.05;;;9.70;99.90;;;;;;4995900;28;20038;-71
2023/10/26 05:39:23;;;;;;;79.82;50.83;;;9.70;99.90;;;;;;5012071;28;20042;-70
2023/10/26 05:41:48;;;;;;;79.57;51.90;;;9.70;99.90;;;;;;5011846;28;20100;-70
2023/10/26 05:44:14;;;;;;;80.45;49.95;;;9.70;99.90;;;;;;4995546;28;20042;-70
2023/10/26 05:46:40;;;;;;;78.68;49.90;;;9.70;99.90;;;;;;5012009;28;20045;-70
2023/10/26 05:49:06;;;;;;;79.38;49.10;;;9.70;99.90;;;;;;5011755;28;20502;-70
2023/10/26 05:51:31;;;;;;;80.47;51.70;;;9.70;99.90;;;;;;5011800;28;20034;-70
2023/10/26 05:53:57;;;;;;;82.20;50.25;;;9.70;99.90;;;;;;5012167;28;20393;-71
2023/10/26 05:56:23;;;;;;;80.40;49.72;;;9.70;99.90;;;;;;5011751;28;20038;-70
2023/10/26 05:58:52;;;;;;;79.47;49.25;;;9.60;99.90;;;;;;5011687;28;20053;-70
2023/10/26 06:01:18;;;;;;;82.35;51.63;;;9.70;99.90;;;;;;5011927;28;20391;-70
2023/10/26 06:03:44;;;;;;;78.20;50.17;;;9.60;99.90;;;;;;5015549;28;20096;-70
2023/10/26 06:06:10;;;;;;;73.45;49.47;;;9.60;99.90;;;;;;5015735;28;20533;-71
2023/10/26 06:08:37;;;;;;;74.35;47.75;;;9.60;99.90;;;;;;5015393;28;20038;-70
2023/10/26 06:11:03;;;;;;;73.97;47.60;;;9.60;99.90;;;;;;5015354;28;20069;-70
2023/10/26 06:13:29;;;;;;;73.30;48.58;;;9.60;99.90;;;;;;5015422;28;20045;-70
2023/10/26 06:15:55;;;;;;;71.85;47.42;;;9.60;99.90;;;;;;5015767;28;20547;-70
2023/10/26 06:18:20;;;;;;;81.55;50.28;;;9.50;99.90;;;;;;5015583;28;20038;-70
2023/10/26 06:20:59;;;;;;;78.75;49.65;;;9.50;99.90;;;;;;5015443;28;20038;-70
2023/10/26 06:23:28;;;;;;;77.13;48.75;;;9.50;99.90;;;;;;5015468;28;20513;-70
2023/10/26 06:25:58;;;;;;;70.47;47.85;;;9.40;99.90;;;;;;5015465;28;20203;-71
2023/10/26 06:28:28;;;;;;;78.57;49.67;;;9.40;99.90;;;;;;5015049;28;20041;-71
2023/10/26 06:31:08;;;;;;;75.70;48.25;;;9.40;99.90;;;;;;5015495;28;20195;-71
2023/10/26 06:33:33;;;;;;;76.18;47.45;;;9.40;99.90;;;;;;5015437;28;20046;-71
2023/10/26 06:35:59;;;;;;;65.68;44.92;;;9.40;99.90;;;;;;5015420;28;20033;-71
2023/10/26 06:38:25;;;;;;;77.30;46.47;;;9.20;99.90;;;;;;4998772;28;20044;-71
2023/10/26 06:40:51;;;;;;;73.68;47.03;;;9.30;99.90;;;;;;5014942;28;20382;-71
2023/10/26 06:43:16;;;;;;;110.18;52.75;;;9.30;99.90;;;;;;5014815;28;20084;-71
2023/10/26 06:45:42;;;;;;;69.85;46.75;;;9.30;99.90;;;;;;5014735;28;20498;-71
2023/10/26 06:48:08;;;;;;;81.22;47.53;;;9.30;99.90;;;;;;5014709;28;20062;-71
2023/10/26 06:50:34;;;;;;;60.20;42.58;;;9.30;99.90;;;;;;4982291;28;20040;-71
2023/10/26 06:52:59;;;;;;;78.03;46.83;;;9.30;99.90;;;;;;5014627;28;20095;-71
2023/10/26 06:55:25;;;;;;;76.85;47.55;;;9.30;99.90;;;;;;5014646;28;20505;-71
2023/10/26 06:57:50;;;;;;;81.47;48.95;;;9.30;99.90;;;;;;4998494;28;20128;-71
2023/10/26 07:00:17;;;;;;;82.72;48.80;;;9.30;99.90;;;;;;4998191;28;20076;-70
2023/10/26 07:02:43;;;;;;;86.10;50.17;;;9.30;99.90;;;;;;5014646;28;20046;-70
2023/10/26 07:05:08;;;;;;;79.90;49.25;;;9.30;99.90;;;;;;5014477;28;20042;-71
2023/10/26 07:07:36;;;;;;;92.45;51.65;;;9.40;99.90;;;;;;5014724;28;20548;-70
2023/10/26 07:10:02;;;;;;;91.25;50.90;;;9.40;99.90;;;;;;5014412;28;20042;-71
2023/10/26 07:12:29;;;;;;;96.90;53.40;;;9.40;99.90;;;;;;5014731;28;20085;-71
2023/10/26 07:14:54;;;;;;;92.65;52.92;;;9.50;99.90;;;;;;5013591;28;20082;-71
2023/10/26 07:17:21;;;;;;;119.30;56.60;;;9.50;99.90;;;;;;5014210;28;20505;-71
2023/10/26 07:19:47;;;;;;;103.82;54.50;;;9.50;99.90;;;;;;5014222;28;20065;-71
2023/10/26 07:22:12;;;;;;;108.53;56.20;;;9.50;99.90;;;;;;4998170;28;20042;-71
2023/10/26 07:24:38;;;;;;;93.60;53.65;;;9.50;99.90;;;;;;5014108;28;20052;-71
2023/10/26 07:27:04;;;;;;;140.27;58.63;;;9.50;99.90;;;;;;4998135;28;20064;-72
2023/10/26 07:29:30;;;;;;;105.75;56.35;;;9.50;99.90;;;;;;5014170;28;20045;-71
2023/10/26 07:31:56;;;;;;;92.93;53.85;;;9.50;99.90;;;;;;5013964;28;20034;-71
2023/10/26 07:34:22;;;;;;;162.38;62.60;;;9.60;99.90;;;;;;4997870;28;20412;-71
2023/10/26 07:36:48;;;;;;;91.60;54.80;;;9.60;99.90;;;;;;5013789;28;20045;-71
2023/10/26 07:39:14;;;;;;;105.38;54.70;;;9.60;99.90;;;;;;5014270;28;20414;-71
2023/10/26 07:41:40;;;;;;;140.30;59.35;;;9.60;99.90;;;;;;4997414;28;20088;-71
2023/10/26 07:44:06;;;;;;;92.75;53.17;;;9.70;99.90;;;;;;5013754;28;20097;-71
2023/10/26 07:46:31;;;;;;;98.30;53.95;;;9.70;99.90;;;;;;5013823;28;20048;-71
2023/10/26 07:48:57;;;;;;;93.68;53.38;;;9.70;99.90;;;;;;5013521;28;20059;-71
2023/10/26 07:51:23;;;;;;;112.65;56.50;;;9.70;99.90;;;;;;5013564;28;20034;-71
2023/10/26 07:53:48;;;;;;;104.93;54.83;;;9.70;99.90;;;;;;5013770;28;20526;-71
2023/10/26 07:56:15;;;;;;;95.47;53.13;;;9.70;99.90;;;;;;5013763;28;20045;-70
2023/10/26 07:58:40;;;;;;;90.45;51.05;;;9.70;99.90;;;;;;5013767;28;20053;-71
2023/10/26 08:01:10;;;;;;;92.75;50.63;;;9.70;99.90;;;;;;4980898;28;20042;-71
2023/10/26 08:03:35;;;;;;;72.28;42.35;;;9.70;99.90;;;;;;5013484;28;20037;-71
2023/10/26 08:06:02;;;;;;;71.53;44.55;;;9.70;99.90;;;;;;4997052;28;20101;-70
2023/10/26 08:08:29;;;;;;;65.50;42.50;;;9.80;99.90;;;;;;4996929;28;20049;-70
2023/10/26 08:10:56;;;;;;;69.68;43.78;;;9.70;99.90;;;;;;4996940;28;20093;-70
2023/10/26 08:13:22;;;;;;;60.47;41.30;;;9.70;99.90;;;;;;5013151;28;20046;-70
2023/10/26 08:15:48;;;;;;;62.67;43.03;;;9.70;99.90;;;;;;4996782;28;20125;-70
2023/10/26 08:18:14;;;;;;;60.33;41.08;;;9.80;99.90;;;;;;4997053;28;20044;-70
2023/10/26 08:20:40;;;;;;;63.03;41.53;;;9.80;99.90;;;;;;5012979;28;20436;-71
2023/10/26 08:23:06;;;;;;;57.53;40.70;;;9.80;99.90;;;;;;5013050;28;20038;-70
2023/10/26 08:25:36;;;;;;;61.25;41.63;;;9.90;99.90;;;;;;5012478;28;20044;-71
2023/10/26 08:28:02;;;;;;;54.70;39.67;;;9.90;99.90;;;;;;5012964;28;20045;-71
2023/10/26 08:30:28;;;;;;;52.45;38.47;;;9.80;99.90;;;;;;5012913;28;20045;-71
2023/10/26 08:32:56;;;;;;;53.10;37.88;;;9.90;99.90;;;;;;5013124;28;20042;-70
2023/10/26 08:35:22;;;;;;;53.60;39.75;;;10.00;99.90;;;;;;5013016;28;20402;-70
2023/10/26 08:37:49;;;;;;;51.45;38.30;;;10.00;99.90;;;;;;5012775;28;20042;-71
2023/10/26 08:40:15;;;;;;;50.75;38.67;;;10.00;99.90;;;;;;5012781;28;20124;-71
2023/10/26 08:42:43;;;;;;;47.28;36.33;;;10.10;99.90;;;;;;5012627;28;20124;-71
2023/10/26 08:45:23;;;;;;;49.67;36.78;;;10.10;99.90;;;;;;5012719;28;20057;-71
2023/10/26 08:47:50;;;;;;;47.50;37.63;;;10.20;99.90;;;;;;5012617;28;20060;-71
2023/10/26 08:50:20;;;;;;;44.90;34.83;;;10.20;99.90;;;;;;5012481;28;20049;-71
2023/10/26 08:52:47;;;;;;;46.85;35.85;;;10.30;99.90;;;;;;5012639;28;20379;-70
2023/10/26 08:55:13;;;;;;;45.17;33.97;;;10.20;99.90;;;;;;5012715;28;20048;-71
2023/10/26 08:57:53;;;;;;;44.53;33.90;;;10.30;99.90;;;;;;5012532;28;20041;-70
2023/10/26 09:00:20;;;;;;;44.13;34.47;;;10.30;99.90;;;;;;4980156;28;20107;-71
2023/10/26 09:02:47;;;;;;;43.65;34.00;;;10.40;99.90;;;;;;5012333;28;20054;-71
2023/10/26 09:05:15;;;;;;;43.38;32.58;;;10.40;99.90;;;;;;4996367;28;20104;-70
2023/10/26 09:07:40;;;;;;;41.70;32.50;;;10.50;99.90;;;;;;5012550;28;20077;-70
2023/10/26 09:10:07;;;;;;;38.90;30.15;;;10.50;99.90;;;;;;5012030;28;20087;-70
2023/10/26 09:12:33;;;;;;;40.28;31.30;;;10.60;99.90;;;;;;4996189;28;20406;-70
2023/10/26 09:15:04;;;;;;;40.60;31.90;;;10.60;99.90;;;;;;5012315;28;20072;-71
2023/10/26 09:17:31;;;;;;;39.65;29.83;;;10.60;99.90;;;;;;5012144;28;20090;-71
2023/10/26 09:19:57;;;;;;;37.90;29.38;;;10.60;99.90;;;;;;5012194;28;20081;-71
2023/10/26 09:22:39;;;;;;;37.75;30.13;;;10.60;99.90;;;;;;5012124;28;20045;-71
2023/10/26 09:25:12;;;;;;;44.47;33.70;;;10.70;99.90;;;;;;5012221;28;20077;-71
2023/10/26 09:27:39;;;;;;;37.58;29.88;;;10.80;99.90;;;;;;5012309;28;20037;-71
2023/10/26 09:30:06;;;;;;;42.00;32.65;;;11.00;99.90;;;;;;5012080;28;20375;-71
2023/10/26 09:32:35;;;;;;;40.28;32.80;;;11.00;99.90;;;;;;5012275;28;20046;-71
2023/10/26 09:35:03;;;;;;;40.58;31.48;;;11.10;99.90;;;;;;5011955;28;20083;-71
2023/10/26 09:37:29;;;;;;;38.35;30.77;;;11.10;99.90;;;;;;5014470;28;20045;-71
2023/10/26 09:39:56;;;;;;;40.97;32.60;;;11.10;99.90;;;;;;5016002;28;20046;-72
2023/10/26 09:42:25;;;;;;;40.63;32.83;;;11.10;99.90;;;;;;5016068;28;20046;-71
2023/10/26 09:44:51;;;;;;;43.95;33.60;;;11.10;99.90;;;;;;5016280;28;20081;-71
2023/10/26 09:47:17;;;;;;;40.40;32.00;;;11.10;99.90;;;;;;4983353;28;20127;-71
2023/10/26 09:49:43;;;;;;;40.10;33.13;;;11.00;99.90;;;;;;5015965;28;20125;-71
2023/10/26 09:52:09;;;;;;;39.85;31.85;;;11.00;99.90;;;;;;5016036;28;20502;-71
2023/10/26 09:54:40;;;;;;;39.25;31.63;;;10.90;99.90;;;;;;4999535;28;20069;-71
2023/10/26 09:57:15;;;;;;;37.78;31.63;;;10.90;99.90;;;;;;5015716;28;20038;-71
2023/10/26 09:59:41;;;;;;;38.40;30.63;;;10.90;99.90;;;;;;5015733;28;20038;-71
2023/10/26 10:02:16;;;;;;;38.22;30.60;;;11.00;99.90;;;;;;5016026;28;20091;-71
2023/10/26 10:04:43;;;;;;;39.33;31.45;;;11.00;99.90;;;;;;5015641;28;20111;-71
2023/10/26 10:07:09;;;;;;;40.80;30.73;;;11.10;99.90;;;;;;5015878;28;20042;-71
2023/10/26 10:10:04;;;;;;;38.58;31.60;;;11.20;99.90;;;;;;5015369;28;20120;-71
2023/10/26 10:12:31;;;;;;;40.47;32.65;;;11.30;99.90;;;;;;5015486;28;20046;-71
2023/10/26 10:14:58;;;;;;;35.50;29.63;;;11.50;99.90;;;;;;5015511;28;20049;-71
2023/10/26 10:17:42;;;;;;;32.35;27.52;;;11.80;99.90;;;;;;5015399;28;20069;-71
2023/10/26 10:20:14;;;;;;;35.95;28.80;;;11.80;99.90;;;;;;5015334;28;20041;-71
2023/10/26 10:22:40;;;;;;;;;;;12.00;99.90;;;;;;5015804;28;20102;-72
2023/10/26 10:25:10;;;;;;;29.52;25.60;;;12.10;99.90;;;;;;5015541;28;20328;-72
2023/10/26 10:27:58;;;;;;;31.73;25.80;;;12.20;99.90;;;;;;5015328;28;20045;-71
2023/10/26 10:30:29;;;;;;;33.38;27.50;;;12.20;99.90;;;;;;5019300;28;20050;-71
2023/10/26 10:32:56;;;;;;;31.13;27.33;;;12.40;99.90;;;;;;5015394;28;20124;-72
2023/10/26 10:35:26;;;;;;;31.17;26.95;;;12.50;99.90;;;;;;5015013;28;20068;-71
2023/10/26 10:38:25;;;;;;;33.67;26.98;;;12.60;99.90;;;;;;4998917;28;20042;-71
2023/10/26 10:40:54;;;;;;;30.45;24.77;;;12.70;99.90;;;;;;4972508;28;20063;-71
2023/10/26 10:43:33;;;;;;;26.55;23.52;;;12.70;99.90;;;;;;5014946;28;20076;-71
2023/10/26 10:46:21;;;;;;;29.77;25.58;;;12.70;99.90;;;;;;5014961;28;20073;-71
2023/10/26 10:49:03;;;;;;;29.42;24.63;;;12.70;99.90;;;;;;5013941;28;20132;-71
2023/10/26 10:51:36;;;;;;;31.42;25.95;;;12.70;99.90;;;;;;5014986;28;20098;-71
2023/10/26 10:54:22;;;;;;;33.03;26.10;;;12.80;99.90;;;;;;4998323;28;20053;-72
2023/10/26 10:56:49;;;;;;;29.67;25.35;;;12.80;99.90;;;;;;5014796;28;20041;-72
2023/10/26 10:59:19;;;;;;;29.13;25.90;;;12.60;99.90;;;;;;4998377;28;20103;-71
2023/10/26 11:01:45;;;;;;;30.15;24.48;;;12.60;99.90;;;;;;5014821;28;20057;-72
2023/10/26 11:04:13;;;;;;;29.83;26.52;;;12.60;99.90;;;;;;5014799;28;20042;-71
2023/10/26 11:06:45;;;;;;;32.08;26.90;;;12.50;99.90;;;;;;4982167;28;20046;-72
2023/10/26 11:09:48;;;;;;;32.45;27.63;;;12.60;99.90;;;;;;5015048;28;20125;-72
2023/10/26 11:12:14;;;;;;;28.48;24.95;;;12.70;99.90;;;;;;5017597;28;20053;-71
2023/10/26 11:14:50;;;;;;;28.20;24.85;;;12.70;99.90;;;;;;5017764;28;20398;-71
2023/10/26 11:17:21;;;;;;;27.23;24.33;;;12.80;99.90;;;;;;5017866;28;20049;-71
2023/10/26 11:19:47;;;;;;;29.17;25.85;;;12.90;99.90;;;;;;5017594;28;20179;-71
2023/10/26 11:22:18;;;;;;;27.73;24.83;;;12.90;99.90;;;;;;5017426;28;20045;-71
2023/10/26 11:24:45;;;;;;;28.50;24.73;;;12.90;99.90;;;;;;5017643;28;20393;-71
2023/10/26 11:27:19;;;;;;;28.48;25.00;;;12.90;99.90;;;;;;5017691;28;20048;-71
2023/10/26 11:30:19;;;;;;;30.02;26.40;;;12.80;99.90;;;;;;5017277;28;20041;-71
2023/10/26 11:32:45;;;;;;;27.55;24.55;;;12.80;99.90;;;;;;5030995;28;20490;-71
2023/10/26 11:35:16;;;;;;;25.70;22.10;;;12.80;99.90;;;;;;5017152;28;20047;-71
2023/10/26 11:37:52;;;;;;;27.75;23.48;;;12.80;99.90;;;;;;5001380;28;20060;-71
2023/10/26 11:40:18;;;;;;;27.90;24.30;;;12.90;99.90;;;;;;5001124;28;20087;-71
2023/10/26 11:42:56;;;;;;;30.38;26.88;;;12.80;99.90;;;;;;5001043;28;20037;-71
2023/10/26 11:45:25;;;;;;;28.77;25.67;;;12.70;99.90;;;;;;5017266;28;20045;-72
2023/10/26 11:47:54;;;;;;;25.85;22.88;;;12.70;99.90;;;;;;5016985;28;20041;-71
2023/10/26 11:50:28;;;;;;;27.83;24.83;;;12.90;99.90;;;;;;5016799;28;20053;-71
2023/10/26 11:52:58;;;;;;;28.25;24.77;;;12.80;99.90;;;;;;5017228;28;20037;-72
2023/10/26 11:55:26;;;;;;;26.27;23.38;;;12.90;99.90;;;;;;5017258;28;20547;-71
2023/10/26 11:57:55;;;;;;;25.98;23.17;;;12.90;99.90;;;;;;5017114;28;20490;-71
2023/10/26 12:00:21;;;;;;;24.67;22.00;;;12.80;99.90;;;;;;5016487;28;20049;-71
2023/10/26 12:02:46;;;;;;;23.25;20.55;;;12.70;99.90;;;;;;5016944;28;20501;-71
2023/10/26 12:05:15;;;;;;;23.40;20.30;;;12.60;99.90;;;;;;5000411;28;20148;-71
2023/10/26 12:07:45;;;;;;;21.60;18.95;;;12.50;99.90;;;;;;5016555;28;20059;-72
2023/10/26 12:10:11;;;;;;;22.10;19.08;;;12.50;99.90;;;;;;4981110;28;20138;-71
2023/10/26 12:12:37;;;;;;;23.73;20.05;;;12.50;99.90;;;;;;5013541;28;20394;-72
2023/10/26 12:15:04;;;;;;;23.05;20.55;;;12.50;99.90;;;;;;4980775;28;20038;-72
2023/10/26 12:17:30;;;;;;;22.33;19.88;;;12.50;99.90;;;;;;5013907;28;20084;-72
2023/10/26 12:19:56;;;;;;;23.17;20.63;;;12.60;99.90;;;;;;5013062;28;20084;-72
2023/10/26 12:22:21;;;;;;;21.77;19.15;;;12.70;99.90;;;;;;5013056;28;20060;-71
2023/10/26 12:24:47;;;;;;;18.27;15.10;;;12.80;99.90;;;;;;4996831;28;20195;-72
2023/10/26 12:27:16;;;;;;;19.15;17.05;;;13.00;99.90;;;;;;5013003;28;20046;-72
2023/10/26 12:29:45;;;;;;;21.13;18.88;;;13.10;99.90;;;;;;5012929;28;20042;-72
2023/10/26 12:32:11;;;;;;;20.30;17.92;;;13.30;99.90;;;;;;5013228;28;20042;-72